Time;durP1;ratioP1;P1;durP2;ratioP2;P2;SDS_P1;SDS_P2;PMS_P1;PMS_P2;Temp;Humidity;BMP_temperature;BMP_pressure;BME280_temperature;BME280_humidity;BME280_pressure;Samples;Min_cycle;Max_cycle;Signal;HPM_P1;HPM_P2
2021/11/16 00:01:27;;;;;;;8.98;3.90;;;;;;;8.34;89.24;102046.06;5027512;28;20546;-65
2021/11/16 00:03:55;;;;;;;7.22;3.22;;;;;;;8.31;89.15;102051.22;5030814;28;20066;-66
2021/11/16 00:06:21;;;;;;;12.73;3.85;;;;;;;8.27;89.34;102045.66;5030896;28;20068;-66
2021/11/16 00:08:47;;;;;;;7.72;2.95;;;;;;;8.32;89.35;102040.19;5022948;28;20034;-64
2021/11/16 00:11:14;;;;;;;11.15;4.38;;;;;;;8.29;89.61;102040.78;5029217;28;20040;-65
2021/11/16 00:13:39;;;;;;;18.15;4.28;;;;;;;8.34;89.05;102035.31;5030830;28;20063;-64
2021/11/16 00:16:05;;;;;;;7.28;3.05;;;;;;;8.32;89.01;102037.53;5027522;28;20431;-65
2021/11/16 00:18:31;;;;;;;8.48;3.30;;;;;;;8.37;88.57;102032.00;5029801;28;20029;-64
2021/11/16 00:20:59;;;;;;;10.57;3.95;;;;;;;8.33;88.49;102025.66;5029856;28;20033;-65
2021/11/16 00:23:33;;;;;;;10.95;2.85;;;;;;;8.23;89.08;102021.31;5031142;28;20539;-65
2021/11/16 00:26:00;;;;;;;8.35;3.72;;;;;;;8.29;88.44;102007.78;5023964;28;20041;-64
2021/11/16 00:28:28;;;;;;;9.60;4.13;;;;;;;8.23;89.26;102003.63;5025519;28;20041;-64
2021/11/16 00:30:56;;;;;;;10.20;4.00;;;;;;;8.23;88.69;102002.53;5012422;28;20487;-64
2021/11/16 00:33:27;;;;;;;11.90;3.60;;;;;;;8.21;88.69;102001.25;5030334;28;20099;-64
2021/11/16 00:35:53;;;;;;;8.73;3.45;;;;;;;8.14;89.16;102011.63;5020365;28;20391;-64
2021/11/16 00:38:20;;;;;;;10.50;3.78;;;;;;;7.98;90.03;102008.50;5030787;28;20029;-64
2021/11/16 00:40:48;;;;;;;14.82;4.22;;;;;;;8.12;89.07;102013.81;5026881;28;20041;-63
2021/11/16 00:43:13;;;;;;;10.15;4.15;;;;;;;8.08;88.92;102007.47;5030277;28;20071;-64
2021/11/16 00:45:42;;;;;;;12.45;4.55;;;;;;;8.06;88.91;102007.78;5027474;28;20045;-63
2021/11/16 00:48:08;;;;;;;18.83;5.07;;;;;;;8.07;89.21;102003.97;5020274;28;20064;-64
2021/11/16 00:50:40;;;;;;;11.48;3.88;;;;;;;8.01;90.05;101991.78;5029111;28;20534;-64
2021/11/16 00:53:06;;;;;;;10.45;3.60;;;;;;;8.08;89.80;101991.38;5025455;28;20068;-64
2021/11/16 00:55:32;;;;;;;10.98;4.85;;;;;;;8.13;89.38;101991.22;5016298;28;20061;-65
2021/11/16 00:57:57;;;;;;;9.52;3.72;;;;;;;8.05;89.74;101992.00;4976791;28;20030;-65
2021/11/16 01:00:24;;;;;;;13.52;4.03;;;;;;;8.08;89.86;101988.69;5007298;28;20026;-64
2021/11/16 01:02:49;;;;;;;16.60;4.65;;;;;;;8.19;88.95;101998.88;5008526;28;20091;-65
2021/11/16 01:05:15;;;;;;;9.38;4.22;;;;;;;8.08;89.37;101992.16;5030112;28;20041;-64
2021/11/16 01:10:15;;;;;;;13.93;3.83;;;;;;;8.06;89.95;101986.31;5001858;28;20050;-67
2021/11/16 01:12:44;;;;;;;8.60;3.35;;;;;;;8.03;89.64;101981.53;5014999;28;20121;-66
2021/11/16 01:15:12;;;;;;;12.27;3.88;;;;;;;8.03;90.55;101973.50;5012856;28;20117;-66
2021/11/16 01:17:43;;;;;;;9.85;4.38;;;;;;;8.00;90.24;101970.63;5016307;28;20095;-66
2021/11/16 01:20:10;;;;;;;10.68;3.38;;;;;;;8.02;90.39;101969.25;5035583;28;20124;-66
2021/11/16 01:22:37;;;;;;;13.63;4.05;;;;;;;8.10;90.54;101955.09;5035318;28;20049;-66
2021/11/16 01:25:04;;;;;;;10.02;3.72;;;;;;;8.18;90.16;101953.56;5027368;28;20116;-66
2021/11/16 01:27:34;;;;;;;9.30;3.60;;;;;;;8.10;89.79;101962.34;5036313;28;20034;-67
2021/11/16 01:30:01;;;;;;;17.52;4.00;;;;;;;8.00;90.42;101958.03;5032837;28;20053;-67
2021/11/16 01:32:36;;;;;;;9.02;3.60;;;;;;;8.11;90.43;101958.56;5017763;28;20104;-66
2021/11/16 01:35:03;;;;;;;15.95;3.80;;;;;;;8.16;89.66;101959.25;5034611;28;20033;-67
2021/11/16 01:37:29;;;;;;;11.90;4.57;;;;;;;8.06;89.79;101959.50;5021732;28;20049;-66
2021/11/16 01:39:55;;;;;;;11.00;4.22;;;;;;;8.12;89.50;101965.53;5034364;28;20033;-65
2021/11/16 01:42:22;;;;;;;7.70;3.90;;;;;;;8.05;89.87;101959.81;5036163;28;20104;-65
2021/11/16 01:44:49;;;;;;;10.10;3.47;;;;;;;8.00;90.07;101957.22;5036510;28;20125;-65
2021/11/16 01:47:16;;;;;;;13.85;4.15;;;;;;;8.05;90.40;101949.84;5029680;28;20033;-66
2021/11/16 01:49:42;;;;;;;10.32;3.70;;;;;;;8.13;90.88;101959.03;5036346;28;20025;-66
2021/11/16 01:52:09;;;;;;;14.82;4.05;;;;;;;8.06;91.18;101959.50;5032385;28;20073;-66
2021/11/16 01:54:35;;;;;;;6.82;3.03;;;;;;;8.07;90.85;101958.38;5034873;28;20033;-66
2021/11/16 01:57:00;;;;;;;11.30;4.38;;;;;;;8.08;90.89;101953.81;5034541;28;20036;-66
2021/11/16 01:59:26;;;;;;;13.18;4.05;;;;;;;8.06;90.97;101959.50;5033404;28;20501;-67
2021/11/16 02:01:54;;;;;;;9.25;3.08;;;;;;;8.06;91.24;101953.31;5028061;28;20052;-67
2021/11/16 02:04:21;;;;;;;12.05;4.28;;;;;;;8.05;90.99;101943.72;5034965;28;20514;-66
2021/11/16 02:06:50;;;;;;;11.30;3.92;;;;;;;7.94;90.97;101948.50;5030648;28;20034;-66
2021/11/16 02:09:16;;;;;;;12.65;4.28;;;;;;;7.88;90.83;101943.56;5031245;28;20060;-66
2021/11/16 02:11:43;;;;;;;12.40;4.05;;;;;;;7.85;90.86;101938.81;5033556;28;20044;-66
2021/11/16 02:14:11;;;;;;;11.60;4.22;;;;;;;7.79;91.05;101934.66;5035799;28;20033;-66
2021/11/16 02:16:37;;;;;;;11.73;4.45;;;;;;;7.83;91.19;101935.66;5035882;28;20045;-66
2021/11/16 02:19:08;;;;;;;11.98;4.03;;;;;;;7.92;90.69;101928.44;5039582;28;20029;-66
2021/11/16 02:21:36;;;;;;;9.45;3.90;;;;;;;7.97;90.32;101931.03;5035381;28;20048;-66
2021/11/16 02:24:03;;;;;;;9.98;3.85;;;;;;;7.91;90.43;101932.25;5032926;28;21753;-66
2021/11/16 02:26:29;;;;;;;11.27;3.88;;;;;;;7.93;90.56;101924.69;5029724;28;20033;-66
2021/11/16 02:28:55;;;;;;;12.13;4.32;;;;;;;7.97;90.00;101923.78;5027143;28;20040;-66
2021/11/16 02:31:21;;;;;;;12.07;3.53;;;;;;;7.89;90.42;101916.47;5031470;28;20103;-66
2021/11/16 02:33:47;;;;;;;10.20;4.45;;;;;;;7.89;90.56;101913.78;5031375;28;20085;-65
2021/11/16 02:36:13;;;;;;;8.63;4.35;;;;;;;7.94;90.41;101907.47;5028592;28;20025;-66
2021/11/16 02:38:40;;;;;;;11.48;4.63;;;;;;;7.90;90.76;101906.50;5032349;28;20116;-66
2021/11/16 02:41:06;;;;;;;10.52;4.38;;;;;;;7.93;90.24;101904.03;5046736;28;20484;-66
2021/11/16 02:43:37;;;;;;;13.55;4.13;;;;;;;7.91;90.82;101906.22;5032633;28;20041;-66
2021/11/16 02:46:06;;;;;;;9.80;4.57;;;;;;;7.86;90.93;101908.22;5030311;28;20039;-65
2021/11/16 02:48:36;;;;;;;14.77;4.82;;;;;;;7.94;91.42;101897.56;5032532;28;20029;-66
2021/11/16 02:51:05;;;;;;;13.50;4.65;;;;;;;7.89;91.23;101902.25;5026504;28;20179;-66
2021/11/16 02:53:31;;;;;;;10.57;4.50;;;;;;;7.90;91.70;101893.09;5032687;28;20033;-65
2021/11/16 02:55:57;;;;;;;17.40;4.60;;;;;;;7.89;91.45;101891.53;5025677;28;20124;-66
2021/11/16 02:58:24;;;;;;;13.45;4.85;;;;;;;7.88;91.44;101892.59;5027324;28;20132;-66
2021/11/16 03:00:53;;;;;;;14.50;3.92;;;;;;;7.91;91.69;101886.66;5030850;28;20033;-66
2021/11/16 03:03:20;;;;;;;12.13;4.63;;;;;;;7.94;91.60;101886.03;5026922;28;20049;-66
2021/11/16 03:05:45;;;;;;;16.85;4.47;;;;;;;7.91;91.92;101875.91;5032432;28;20037;-66
2021/11/16 03:08:16;;;;;;;12.55;4.30;;;;;;;7.85;91.64;101883.31;5031984;28;20040;-66
2021/11/16 03:10:41;;;;;;;16.48;4.35;;;;;;;7.82;92.09;101880.44;5027787;28;20038;-67
2021/11/16 03:13:07;;;;;;;16.38;5.13;;;;;;;7.89;91.51;101875.44;5031691;28;20108;-66
2021/11/16 03:15:33;;;;;;;15.88;5.35;;;;;;;7.88;91.62;101868.47;5031919;28;20041;-66
2021/11/16 03:17:59;;;;;;;14.10;4.20;;;;;;;7.92;91.25;101864.09;5014118;28;20060;-66
2021/11/16 03:20:25;;;;;;;10.50;3.75;;;;;;;7.81;91.91;101870.81;5021010;28;20456;-66
2021/11/16 03:22:56;;;;;;;10.20;4.30;;;;;;;7.86;91.89;101865.31;5020781;28;20030;-66
2021/11/16 03:25:28;;;;;;;12.65;4.35;;;;;;;7.81;92.49;101865.44;5025442;28;20087;-66
2021/11/16 03:28:01;;;;;;;13.88;4.53;;;;;;;7.81;91.79;101870.81;5028270;28;20030;-66
2021/11/16 03:30:28;;;;;;;15.23;4.65;;;;;;;7.76;92.59;101874.38;5041918;28;20039;-66
2021/11/16 03:32:54;;;;;;;13.57;4.50;;;;;;;7.80;92.38;101871.91;5030010;28;20399;-66
2021/11/16 03:35:20;;;;;;;16.40;5.85;;;;;;;7.87;91.83;101872.25;5028079;28;20036;-66
2021/11/16 03:37:49;;;;;;;11.30;4.63;;;;;;;7.78;92.20;101879.47;5026969;28;20033;-66
2021/11/16 03:40:16;;;;;;;12.30;4.32;;;;;;;7.79;92.30;101883.72;5030536;28;20045;-66
2021/11/16 03:42:45;;;;;;;12.88;4.40;;;;;;;7.74;91.89;101868.53;5031278;28;20400;-66
2021/11/16 03:45:17;;;;;;;11.35;4.07;;;;;;;7.68;91.62;101871.66;5026724;28;20083;-66
2021/11/16 03:47:47;;;;;;;10.88;3.80;;;;;;;7.69;91.31;101868.69;5023137;28;20139;-66
2021/11/16 03:50:16;;;;;;;14.57;4.07;;;;;;;7.77;90.68;101861.78;5029892;28;20029;-66
2021/11/16 03:52:43;;;;;;;17.67;4.90;;;;;;;7.76;90.46;101863.66;5030877;28;20029;-66
2021/11/16 03:55:11;;;;;;;10.00;3.95;;;;;;;7.83;90.13;101866.72;5027189;28;20041;-66
2021/11/16 03:57:38;;;;;;;12.05;3.10;;;;;;;7.80;90.03;101858.50;5031150;28;20072;-66
2021/11/16 04:00:07;;;;;;;13.23;3.78;;;;;;;7.79;89.73;101859.59;5023396;28;20434;-66
2021/11/16 04:02:32;;;;;;;8.95;3.53;;;;;;;7.76;89.63;101855.63;5030538;28;20044;-66
2021/11/16 04:05:03;;;;;;;12.30;3.90;;;;;;;7.85;89.97;101847.66;5020603;28;20029;-66
2021/11/16 04:07:33;;;;;;;8.88;3.92;;;;;;;7.80;89.76;101839.75;5030779;28;20041;-66
2021/11/16 04:09:58;;;;;;;12.23;3.65;;;;;;;7.87;89.12;101842.78;5023017;28;20033;-66
2021/11/16 04:12:24;;;;;;;11.07;3.15;;;;;;;7.85;89.62;101848.44;5024665;28;20029;-66
2021/11/16 04:14:53;;;;;;;8.23;3.25;;;;;;;7.91;89.20;101843.75;5021377;28;20060;-66
2021/11/16 04:17:21;;;;;;;11.48;4.05;;;;;;;7.92;89.35;101842.63;5029743;28;20056;-66
2021/11/16 04:19:46;;;;;;;10.40;3.58;;;;;;;7.92;89.01;101850.69;5027337;28;20132;-66
2021/11/16 04:22:12;;;;;;;9.07;4.03;;;;;;;7.87;89.00;101842.78;5030233;28;20108;-66
2021/11/16 04:24:38;;;;;;;9.85;3.25;;;;;;;7.86;88.47;101838.50;5029347;28;20116;-66
2021/11/16 04:27:04;;;;;;;11.18;3.25;;;;;;;7.79;88.39;101846.19;5018632;28;20109;-66
2021/11/16 04:29:30;;;;;;;11.70;4.72;;;;;;;7.92;87.75;101826.53;5029797;28;20504;-66
2021/11/16 04:31:58;;;;;;;9.07;3.20;;;;;;;7.85;88.39;101834.25;5026842;28;20083;-67
2021/11/16 04:34:23;;;;;;;9.20;3.90;;;;;;;7.81;88.72;101830.59;5023483;28;20029;-67
2021/11/16 04:36:52;;;;;;;9.77;3.75;;;;;;;7.79;88.75;101838.94;5028561;28;20067;-67
2021/11/16 04:39:18;;;;;;;13.07;3.70;;;;;;;7.82;88.79;101834.88;5024206;28;20033;-67
2021/11/16 04:41:44;;;;;;;12.68;4.47;;;;;;;7.87;88.46;101835.53;5026954;28;20111;-67
2021/11/16 04:44:10;;;;;;;12.50;3.60;;;;;;;7.81;88.53;101835.94;5028750;28;20080;-67
2021/11/16 04:46:36;;;;;;;10.65;4.38;;;;;;;7.90;87.83;101845.63;5029025;28;20025;-66
2021/11/16 04:54:20;;;;;;;;;;;;;;;7.85;88.11;101826.19;5029050;28;20034;-66
2021/11/16 05:04:54;;;;;;;14.00;3.47;;;;;;;7.80;88.15;101824.44;5022264;28;20029;-66
2021/11/16 05:07:21;;;;;;;10.20;3.95;;;;;;;7.75;88.47;101818.41;5024935;28;20029;-66
2021/11/16 05:09:52;;;;;;;6.93;3.10;;;;;;;7.76;89.02;101814.63;5024208;28;20045;-67
2021/11/16 05:12:19;;;;;;;10.13;4.05;;;;;;;7.78;88.43;101825.84;5020822;28;20026;-67
2021/11/16 05:14:46;;;;;;;5.85;2.55;;;;;;;7.82;88.09;101832.19;5038761;28;20086;-67
2021/11/16 05:17:12;;;;;;;11.98;4.28;;;;;;;7.77;88.22;101826.94;5026662;28;20029;-66
2021/11/16 05:19:38;;;;;;;11.02;3.70;;;;;;;7.78;88.43;101831.97;5012591;28;20026;-68
2021/11/16 05:22:24;;;;;;;8.55;3.25;;;;;;;7.85;87.88;101826.19;5028192;28;20041;-67
2021/11/16 05:24:50;;;;;;;10.40;3.95;;;;;;;7.85;88.19;101820.84;4944912;29;20073;-67
2021/11/16 05:27:19;;;;;;;12.05;4.38;;;;;;;7.84;87.13;101819.25;4948048;29;20341;-67
2021/11/16 05:29:44;;;;;;;15.68;3.63;;;;;;;7.79;88.03;101822.84;4947238;29;20058;-67
2021/11/16 05:32:10;;;;;;;9.88;3.45;;;;;;;7.81;88.22;101825.22;4942957;29;20032;-66
2021/11/16 05:34:36;;;;;;;13.23;4.57;;;;;;;7.84;87.80;101830.75;4946291;29;20047;-67
2021/11/16 05:37:04;;;;;;;9.07;3.90;;;;;;;7.89;87.95;101824.47;4946382;28;20046;-66
2021/11/16 05:39:30;;;;;;;12.98;3.83;;;;;;;7.83;87.71;101818.47;4940945;28;20043;-66
2021/11/16 05:41:55;;;;;;;11.95;3.97;;;;;;;7.85;88.26;101824.31;4943185;29;20197;-67
2021/11/16 05:44:21;;;;;;;8.20;3.78;;;;;;;7.87;88.30;101816.75;4947593;29;20039;-67
2021/11/16 05:46:46;;;;;;;15.20;4.75;;;;;;;7.85;88.34;101815.47;4943689;29;20129;-68
2021/11/16 05:49:12;;;;;;;9.05;3.55;;;;;;;7.83;88.19;101820.34;4940074;29;20306;-66
2021/11/16 05:51:37;;;;;;;12.95;4.30;;;;;;;7.83;88.46;101821.16;4929337;29;20616;-67
2021/11/16 05:54:05;;;;;;;9.77;4.00;;;;;;;7.88;88.03;101818.31;4948660;29;20046;-67
2021/11/16 05:56:35;;;;;;;11.05;4.25;;;;;;;7.83;87.64;101812.31;4941027;29;20135;-67
2021/11/16 05:59:02;;;;;;;9.25;3.92;;;;;;;7.74;88.39;101808.78;4950731;28;20043;-67
2021/11/16 06:01:30;;;;;;;10.13;3.20;;;;;;;7.78;88.27;101815.13;4973729;28;20059;-67
2021/11/16 06:03:57;;;;;;;9.30;3.97;;;;;;;7.79;88.48;101814.00;5020594;28;20048;-66
2021/11/16 06:06:25;;;;;;;7.65;3.67;;;;;;;7.75;88.45;101811.16;5010946;28;20025;-67
2021/11/16 06:08:52;;;;;;;11.20;4.60;;;;;;;7.78;87.84;101815.91;5005903;28;20029;-66
2021/11/16 06:11:19;;;;;;;9.10;4.13;;;;;;;7.85;87.89;101816.28;5011189;28;20048;-66
2021/11/16 06:13:47;;;;;;;11.20;3.47;;;;;;;7.82;87.69;101821.47;5003889;28;20041;-67
2021/11/16 06:16:13;;;;;;;8.63;3.85;;;;;;;7.79;88.05;101816.69;5023009;28;20065;-67
2021/11/16 06:18:39;;;;;;;11.98;4.70;;;;;;;7.77;88.12;101810.84;5027917;28;20499;-66
2021/11/16 06:21:04;;;;;;;13.23;4.65;;;;;;;7.77;87.84;101821.56;5015919;28;20120;-66
2021/11/16 06:23:31;;;;;;;12.00;4.78;;;;;;;7.80;87.72;101819.06;5021529;28;20135;-66
2021/11/16 06:26:00;;;;;;;12.70;3.42;;;;;;;7.74;88.53;101814.91;5040171;28;20507;-67
2021/11/16 06:28:26;;;;;;;9.32;3.58;;;;;;;7.78;88.83;101820.50;5029492;28;20044;-67
2021/11/16 06:30:52;;;;;;;15.50;5.03;;;;;;;7.79;88.19;101814.00;5022469;28;20025;-67
2021/11/16 06:33:24;;;;;;;12.25;4.30;;;;;;;7.72;88.86;101830.56;5027696;28;20063;-66
2021/11/16 06:35:50;;;;;;;15.38;4.15;;;;;;;7.83;88.32;101833.75;5019784;28;20045;-68
2021/11/16 06:38:16;;;;;;;11.65;4.63;;;;;;;7.79;88.43;101824.72;5029353;28;20036;-68
2021/11/16 06:40:47;;;;;;;9.68;4.00;;;;;;;7.81;89.10;101830.59;5030690;28;20045;-66
2021/11/16 06:43:27;;;;;;;8.65;3.50;;;;;;;7.79;89.06;101828.22;5023015;28;20032;-66
2021/11/16 06:45:56;;;;;;;14.98;4.57;;;;;;;7.79;88.52;101833.59;5028118;28;20037;-67
2021/11/16 06:48:23;;;;;;;14.55;5.10;;;;;;;7.80;89.04;101829.00;5028021;28;20101;-66
2021/11/16 06:50:50;;;;;;;15.52;4.55;;;;;;;7.81;88.30;101838.63;5029998;28;20494;-67
2021/11/16 06:53:35;;;;;;;12.68;4.55;;;;;;;7.80;88.53;101827.09;5031811;28;20064;-67
2021/11/16 06:56:04;;;;;;;13.60;4.88;;;;;;;7.81;87.95;101828.69;5029012;28;20512;-68
2021/11/16 06:58:35;;;;;;;13.18;4.75;;;;;;;7.80;88.14;101827.09;5031599;28;20750;-67
2021/11/16 07:01:03;;;;;;;10.00;4.07;;;;;;;7.76;88.50;101820.00;5026744;28;20041;-68
2021/11/16 07:03:29;;;;;;;13.70;4.68;;;;;;;7.84;88.45;101820.03;5019919;28;20156;-68
2021/11/16 07:06:00;;;;;;;15.13;5.00;;;;;;;7.82;88.47;101821.47;5021119;28;20129;-67
2021/11/16 07:08:31;;;;;;;9.98;4.05;;;;;;;7.85;88.23;101826.19;5061730;23;20109;-64
2021/11/16 07:11:02;;;;;;;11.73;4.43;;;;;;;7.83;88.13;101823.81;4967224;28;20054;-66
2021/11/16 07:13:28;;;;;;;11.13;3.60;;;;;;;7.86;88.71;101823.19;4972402;28;20034;-66
2021/11/16 07:15:53;;;;;;;15.93;4.95;;;;;;;7.84;88.55;101825.41;4972644;28;20129;-65
2021/11/16 07:18:19;;;;;;;18.17;4.95;;;;;;;7.88;88.79;101830.94;4979735;28;20038;-66
2021/11/16 07:20:46;;;;;;;17.25;5.30;;;;;;;7.90;88.35;101826.84;4955530;28;20103;-66
2021/11/16 07:23:12;;;;;;;13.20;4.35;;;;;;;7.85;88.21;101835.03;4958305;28;20039;-66
2021/11/16 07:25:38;;;;;;;13.18;4.28;;;;;;;7.87;88.09;101827.47;4951816;28;20700;-66
2021/11/16 07:28:03;;;;;;;14.27;4.60;;;;;;;7.85;87.80;101837.72;4958409;28;20072;-65
2021/11/16 07:30:35;;;;;;;14.77;5.60;;;;;;;7.72;88.88;101843.94;4952358;28;20493;-66
2021/11/16 07:33:03;;;;;;;15.80;5.18;;;;;;;7.75;88.60;101834.50;4957175;28;20418;-65
2021/11/16 07:35:34;;;;;;;14.55;4.95;;;;;;;7.77;88.81;101835.78;4965650;28;20028;-64
2021/11/16 07:38:05;;;;;;;13.10;4.20;;;;;;;7.80;88.76;101834.38;4951625;28;20089;-65
2021/11/16 07:40:33;;;;;;;18.20;5.82;;;;;;;7.88;88.21;101839.78;4955993;28;20118;-65
2021/11/16 07:43:07;;;;;;;14.15;4.25;;;;;;;7.84;87.95;101836.13;4956515;28;20095;-67
2021/11/16 07:45:41;;;;;;;12.77;4.55;;;;;;;7.75;88.58;101835.28;4975631;28;20038;-65
2021/11/16 07:48:09;;;;;;;15.25;5.03;;;;;;;7.75;88.95;101831.81;4962683;28;20058;-65
2021/11/16 07:50:55;;;;;;;11.65;4.95;;;;;;;7.75;89.47;101835.28;4958954;28;20031;-65
2021/11/16 07:53:34;;;;;;;14.98;4.75;;;;;;;7.77;89.21;101829.63;4953348;28;20409;-66
2021/11/16 07:56:25;;;;;;;11.95;4.70;;;;;;;7.80;89.12;101823.66;4956431;28;20508;-66
2021/11/16 07:59:00;;;;;;;18.13;5.10;;;;;;;7.86;89.20;101822.41;4962865;28;20049;-64
2021/11/16 08:04:24;;;;;;;10.85;4.35;;;;;;;7.79;89.97;101824.72;4953362;28;20047;-66
2021/11/16 08:14:46;;;;;;;17.75;5.45;;;;;;;7.81;89.91;101820.66;4954649;28;20050;-65
2021/11/16 08:17:13;;;;;;;17.55;6.00;;;;;;;7.88;89.53;101823.69;4953631;28;20099;-65
2021/11/16 08:19:40;;;;;;;15.00;4.55;;;;;;;7.82;89.85;101827.59;4952261;28;20122;-66
2021/11/16 08:22:14;;;;;;;10.35;4.07;;;;;;;7.75;90.45;101815.72;4954034;28;20034;-65
2021/11/16 08:24:43;;;;;;;17.08;5.35;;;;;;;7.81;90.29;101815.28;4961912;28;20133;-67
2021/11/16 08:27:12;;;;;;;15.88;4.97;;;;;;;7.77;90.56;101818.88;4972170;28;20370;-65
2021/11/16 08:29:42;;;;;;;14.65;4.97;;;;;;;7.77;90.79;101814.31;4934430;28;20121;-65
2021/11/16 08:32:13;;;;;;;14.70;4.55;;;;;;;7.83;90.53;101814.97;4956662;28;20031;-66
2021/11/16 08:34:44;;;;;;;9.50;3.97;;;;;;;7.82;90.42;101816.09;4947478;28;20838;-64
2021/11/16 08:37:12;;;;;;;16.92;5.50;;;;;;;7.78;90.89;101807.09;4957684;28;20064;-64
2021/11/16 08:39:40;;;;;;;15.93;5.35;;;;;;;7.84;90.48;101805.84;4964250;28;20039;-63
2021/11/16 08:42:23;;;;;;;18.83;5.20;;;;;;;7.81;91.00;101804.56;4966928;28;20405;-64
2021/11/16 08:45:02;;;;;;;18.70;5.95;;;;;;;7.84;90.80;101803.94;4966977;28;20039;-63
2021/11/16 08:47:34;;;;;;;11.93;4.78;;;;;;;7.85;91.18;101804.75;4973674;28;20500;-64
2021/11/16 08:50:04;;;;;;;15.60;4.95;;;;;;;7.81;91.46;101798.41;4959331;28;20450;-64
2021/11/16 08:52:29;;;;;;;15.07;5.82;;;;;;;7.85;91.15;101802.84;4961194;28;20051;-64
2021/11/16 08:55:01;;;;;;;13.57;5.05;;;;;;;7.85;91.32;101796.69;4959097;28;20066;-64
2021/11/16 08:57:29;;;;;;;19.05;5.60;;;;;;;7.89;91.20;101795.78;4953392;28;21003;-64
2021/11/16 08:59:56;;;;;;;18.92;6.32;;;;;;;7.77;91.95;101800.91;4951439;28;20097;-63
2021/11/16 09:02:24;;;;;;;14.30;4.45;;;;;;;7.78;92.44;101794.44;4954400;28;20481;-64
2021/11/16 09:04:50;;;;;;;17.23;5.55;;;;;;;7.84;92.34;101798.59;4953126;28;20086;-64
2021/11/16 09:07:24;;;;;;;16.27;5.80;;;;;;;7.87;92.11;101797.19;4950883;28;20517;-64
2021/11/16 09:09:57;;;;;;;22.73;6.63;;;;;;;7.86;92.04;101795.59;4949723;28;20062;-63
2021/11/16 09:12:42;;;;;;;20.73;5.15;;;;;;;7.79;92.64;101796.03;4950632;28;20477;-63
2021/11/16 09:15:10;;;;;;;18.73;6.10;;;;;;;7.80;92.57;101784.22;4943934;28;20046;-64
2021/11/16 09:17:37;;;;;;;12.18;4.68;;;;;;;7.74;92.90;101787.34;4957817;28;20019;-64
2021/11/16 09:20:32;;;;;;;11.13;4.18;;;;;;;7.70;93.46;101786.38;4951995;28;20035;-63
2021/11/16 09:22:58;;;;;;;22.48;5.70;;;;;;;7.81;93.35;101793.03;4939289;28;20788;-63
2021/11/16 09:25:30;;;;;;;15.68;5.20;;;;;;;7.76;93.83;101799.31;4953529;28;20102;-63
2021/11/16 09:28:02;;;;;;;12.15;4.70;;;;;;;7.73;93.79;101791.91;4965552;28;20063;-63
2021/11/16 09:30:43;;;;;;;18.92;5.95;;;;;;;7.65;94.38;101792.66;4955950;28;20401;-63
2021/11/16 09:33:17;;;;;;;13.50;4.75;;;;;;;7.71;93.91;101787.94;4960891;28;20082;-63
2021/11/16 09:35:47;;;;;;;14.85;5.28;;;;;;;7.75;93.99;101786.22;4971259;28;20512;-64
2021/11/16 09:38:13;;;;;;;13.52;4.82;;;;;;;7.79;93.70;101784.53;4972747;28;20039;-64
2021/11/16 09:40:39;;;;;;;11.20;4.45;;;;;;;7.83;93.86;101780.94;4955973;28;20035;-64
2021/11/16 09:43:04;;;;;;;11.85;5.07;;;;;;;7.79;93.92;101776.47;4956469;28;20417;-64
2021/11/16 09:45:31;;;;;;;14.02;4.90;;;;;;;7.80;94.41;101786.13;4957018;28;20039;-65
2021/11/16 09:47:57;;;;;;;16.63;5.28;;;;;;;7.81;94.68;101783.13;4951964;28;20035;-64
2021/11/16 09:50:27;;;;;;;20.63;5.35;;;;;;;7.74;94.60;101780.06;4959895;28;20069;-64
2021/11/16 09:52:56;;;;;;;11.80;4.53;;;;;;;7.77;94.71;101781.34;4952038;28;20129;-65
2021/11/16 09:55:24;;;;;;;20.02;5.40;;;;;;;7.78;95.39;101770.31;4954635;28;20042;-65
2021/11/16 09:57:57;;;;;;;12.07;4.47;;;;;;;7.77;94.88;101776.00;4972044;28;20035;-66
2021/11/16 10:00:24;;;;;;;20.08;5.47;;;;;;;7.81;95.49;101772.41;4951550;28;20043;-64
2021/11/16 10:03:13;;;;;;;20.85;6.00;;;;;;;7.79;95.20;101769.22;4946706;28;20445;-65
2021/11/16 10:05:45;;;;;;;15.98;5.07;;;;;;;7.83;95.50;101772.09;4953457;28;20455;-66
2021/11/16 10:08:12;;;;;;;16.67;5.57;;;;;;;7.81;94.89;101769.72;4948881;28;20035;-66
2021/11/16 10:10:41;;;;;;;11.80;4.32;;;;;;;7.84;95.25;101773.69;4952959;28;20504;-65
2021/11/16 10:13:11;;;;;;;24.65;5.25;;;;;;;7.85;95.06;101764.53;4953999;28;20035;-65
2021/11/16 10:15:40;;;;;;;15.93;4.85;;;;;;;7.83;95.55;101764.03;4952829;28;20035;-65
2021/11/16 10:18:06;;;;;;;17.30;5.50;;;;;;;7.93;95.18;101758.41;4951487;28;20031;-64
2021/11/16 10:20:35;;;;;;;13.38;5.10;;;;;;;7.92;94.88;101752.25;4951246;28;20043;-66
2021/11/16 10:23:06;;;;;;;16.60;4.90;;;;;;;7.89;94.95;101749.41;4951844;28;20027;-66
2021/11/16 10:25:33;;;;;;;18.40;5.40;;;;;;;7.89;95.05;101742.16;4952879;28;20051;-65
2021/11/16 10:28:06;;;;;;;14.63;5.18;;;;;;;7.79;95.51;101728.22;4955200;28;20054;-65
2021/11/16 10:30:36;;;;;;;10.95;4.18;;;;;;;7.82;96.48;101730.28;4950468;28;20054;-65
2021/11/16 10:33:08;;;;;;;20.70;5.97;;;;;;;7.84;95.82;101714.69;4951410;28;20027;-66
2021/11/16 10:35:38;;;;;;;21.35;5.40;;;;;;;7.80;95.92;101713.72;4953982;28;20043;-64
2021/11/16 10:38:08;;;;;;;12.32;4.22;;;;;;;7.84;95.95;101699.38;4956426;28;20089;-66
2021/11/16 10:40:36;;;;;;;17.67;4.57;;;;;;;7.86;96.41;101705.22;4956653;28;20043;-65
2021/11/16 10:43:03;;;;;;;20.02;5.07;;;;;;;7.86;96.46;101705.22;4957903;28;20504;-66
2021/11/16 10:45:31;;;;;;;14.15;4.57;;;;;;;7.87;96.82;101692.59;4959950;28;20031;-65
2021/11/16 10:48:00;;;;;;;15.00;4.97;;;;;;;7.97;95.62;101697.69;4954642;28;20486;-66
2021/11/16 10:50:28;;;;;;;15.82;4.55;;;;;;;7.83;95.79;101688.97;4961841;28;20093;-66
2021/11/16 10:53:19;;;;;;;14.23;4.15;;;;;;;7.82;96.70;101693.53;4952680;28;20097;-65
2021/11/16 10:55:57;;;;;;;14.02;5.28;;;;;;;7.90;96.64;101686.59;4947475;28;20109;-63
2021/11/16 10:58:53;;;;;;;13.93;4.18;;;;;;;7.84;96.58;101687.88;4954265;28;20023;-63
2021/11/16 11:01:23;;;;;;;15.95;4.47;;;;;;;7.81;97.09;101680.44;4938727;28;20130;-65
2021/11/16 11:03:54;;;;;;;12.35;4.22;;;;;;;7.86;97.02;101680.28;4952199;28;20071;-64
2021/11/16 11:06:20;;;;;;;17.63;4.97;;;;;;;7.90;96.86;101679.38;4954282;28;20031;-64
2021/11/16 11:08:47;;;;;;;16.70;4.82;;;;;;;7.88;97.05;101678.09;4949164;28;20493;-65
2021/11/16 11:11:15;;;;;;;15.25;5.55;;;;;;;7.78;97.01;101673.03;4952491;28;20049;-64
2021/11/16 11:13:46;;;;;;;13.82;4.28;;;;;;;7.82;97.67;101666.72;4942886;29;20130;-66
2021/11/16 11:16:16;;;;;;;10.52;4.55;;;;;;;7.80;97.94;101666.22;4952519;28;20042;-64
2021/11/16 11:18:45;;;;;;;16.38;5.20;;;;;;;7.84;97.34;101658.38;4950865;28;20070;-64
2021/11/16 11:21:24;;;;;;;15.20;4.65;;;;;;;7.84;97.59;101659.16;4952915;28;20035;-65
2021/11/16 11:23:54;;;;;;;11.10;4.40;;;;;;;7.88;97.74;101654.75;4956078;28;20171;-65
2021/11/16 11:26:53;;;;;;;11.23;4.18;;;;;;;7.89;97.72;101650.19;4949478;28;20042;-63
2021/11/16 11:29:25;;;;;;;14.85;5.00;;;;;;;7.91;97.53;101642.63;4953556;28;20035;-64
2021/11/16 11:32:09;;;;;;;11.80;3.95;;;;;;;7.90;97.32;101635.66;4952558;28;20081;-62
2021/11/16 11:34:45;;;;;;;16.00;4.63;;;;;;;7.91;97.51;101631.91;4955681;29;20122;-65
2021/11/16 11:37:20;;;;;;;13.57;4.05;;;;;;;7.90;97.73;101632.97;4948962;29;20465;-65
2021/11/16 11:39:55;;;;;;;12.40;4.60;;;;;;;7.90;98.32;101635.66;4951079;28;20035;-65
2021/11/16 11:42:20;;;;;;;10.07;3.63;;;;;;;7.96;97.21;101631.72;4954198;29;20045;-63
2021/11/16 11:45:08;;;;;;;15.45;5.15;;;;;;;7.98;97.07;101630.31;4953732;29;20043;-65
2021/11/16 11:47:38;;;;;;;13.02;4.68;;;;;;;7.91;97.16;101629.22;4949978;29;20119;-66
2021/11/16 11:50:32;;;;;;;15.57;4.97;;;;;;;7.93;97.50;101629.69;4950068;29;20625;-66
2021/11/16 11:53:03;;;;;;;14.73;4.03;;;;;;;7.88;97.47;101635.97;4936139;29;20047;-63
2021/11/16 11:55:30;;;;;;;;;;;;;;;7.85;98.27;101633.13;4952757;28;20062;-65
2021/11/16 11:57:57;;;;;;;12.00;4.15;;;;;;;7.85;98.36;101628.56;4945744;29;19918;-65
2021/11/16 12:00:25;;;;;;;9.95;3.80;;;;;;;7.88;98.09;101624.44;4950113;28;20047;-66
2021/11/16 12:02:51;;;;;;;12.27;4.40;;;;;;;7.91;97.53;101621.97;4945846;29;20058;-64